createdAt,value
2023-03-21T00:00:13.094Z,20.35
2023-03-21T00:03:16.465Z,20.50
2023-03-21T00:06:19.213Z,23.50
2023-03-21T00:09:22.241Z,22.30
2023-03-21T00:12:24.997Z,20.63
2023-03-21T00:15:39.930Z,22.85
2023-03-21T00:18:47.459Z,23.52
2023-03-21T00:25:15.417Z,22.80
2023-03-21T00:28:18.282Z,23.87
2023-03-21T00:31:21.529Z,24.08
2023-03-21T00:34:36.501Z,21.77
2023-03-21T00:37:46.452Z,22.20
2023-03-21T00:40:49.699Z,22.10
2023-03-21T00:43:55.714Z,18.97
2023-03-21T00:47:07.489Z,21.40
2023-03-21T00:50:12.046Z,18.52
2023-03-21T00:53:15.665Z,21.08
2023-03-21T00:56:18.373Z,22.73
2023-03-21T00:59:21.620Z,22.50
2023-03-21T01:02:26.861Z,22.02
2023-03-21T01:05:49.477Z,19.92
2023-03-21T01:08:53.519Z,22.55
2023-03-21T01:11:56.512Z,21.95
2023-03-21T01:14:59.220Z,20.93
2023-03-21T01:18:02.457Z,19.88
2023-03-21T01:21:09.352Z,20.70
2023-03-21T01:24:12.231Z,21.70
2023-03-21T01:27:16.121Z,19.92
2023-03-21T01:30:22.755Z,19.43
2023-03-21T01:33:26.687Z,19.42
2023-03-21T01:36:29.706Z,18.98
2023-03-21T01:39:37.869Z,21.35
2023-03-21T01:42:42.423Z,18.83
2023-03-21T01:46:10.479Z,19.90
2023-03-21T01:49:36.172Z,16.08
2023-03-21T01:52:56.324Z,17.17
2023-03-21T01:56:12.486Z,16.25
2023-03-21T01:59:51.449Z,15.80
2023-03-21T02:03:23.684Z,16.57
2023-03-21T02:06:49.513Z,13.95
2023-03-21T02:10:22.119Z,18.30
2023-03-21T02:13:28.577Z,13.95
2023-03-21T02:16:47.692Z,14.63
2023-03-21T02:20:29.785Z,14.03
2023-03-21T02:23:59.448Z,13.35
2023-03-21T02:27:11.927Z,15.80
2023-03-21T02:30:37.488Z,13.43
2023-03-21T02:34:23.462Z,12.10
2023-03-21T02:37:38.871Z,14.70
2023-03-21T02:41:10.092Z,13.32
2023-03-21T02:44:30.077Z,13.02
2023-03-21T02:47:38.045Z,10.93
2023-03-21T02:50:52.793Z,13.55
2023-03-21T02:54:26.435Z,14.60
2023-03-21T02:57:33.851Z,11.27
2023-03-21T03:00:44.890Z,11.52
2023-03-21T03:03:52.344Z,11.73
2023-03-21T03:07:13.103Z,11.65
2023-03-21T03:10:51.332Z,11.40
2023-03-21T03:14:46.816Z,12.60
2023-03-21T03:18:05.052Z,10.25
2023-03-21T03:21:33.803Z,11.05
2023-03-21T03:25:21.407Z,10.30
2023-03-21T03:28:35.669Z,12.73
2023-03-21T03:31:46.288Z,9.55
2023-03-21T03:34:56.385Z,12.05
2023-03-21T03:38:07.105Z,10.50
2023-03-21T03:41:19.507Z,9.75
2023-03-21T03:44:28.591Z,11.00
2023-03-21T03:47:56.410Z,10.68
2023-03-21T03:51:16.360Z,13.75
2023-03-21T03:54:42.972Z,10.57
2023-03-21T03:57:46.014Z,10.57
2023-03-21T04:00:49.537Z,13.13
2023-03-21T04:04:03.512Z,10.43
2023-03-21T04:07:13.817Z,9.88
2023-03-21T04:10:18.400Z,11.52
2023-03-21T04:13:21.868Z,10.60
2023-03-21T04:16:46.608Z,12.60
2023-03-21T04:19:55.521Z,10.98
2023-03-21T04:23:00.616Z,13.23
2023-03-21T04:26:04.713Z,12.05
2023-03-21T04:29:12.404Z,9.85
2023-03-21T04:32:54.168Z,12.77
2023-03-21T04:35:59.378Z,11.13
2023-03-21T04:39:12.499Z,12.65
2023-03-21T04:42:18.640Z,13.85
2023-03-21T04:45:21.384Z,11.60
2023-03-21T04:48:24.823Z,12.80
2023-03-21T04:51:28.055Z,12.90
2023-03-21T04:54:32.503Z,11.70
2023-03-21T04:57:35.473Z,12.45
2023-03-21T05:00:39.219Z,11.23
2023-03-21T05:03:42.296Z,10.50
2023-03-21T05:06:46.060Z,12.88
2023-03-21T05:09:48.937Z,14.35
2023-03-21T05:12:52.904Z,13.30
2023-03-21T05:15:56.085Z,12.45
2023-03-21T05:19:03.975Z,13.63
2023-03-21T05:22:12.225Z,12.60
2023-03-21T05:25:18.320Z,13.82
2023-03-21T05:28:41.407Z,14.60
2023-03-21T05:31:46.767Z,13.50
2023-03-21T05:34:50.992Z,11.57
2023-03-21T05:37:57.886Z,11.43
2023-03-21T05:41:02.795Z,13.05
2023-03-21T05:44:07.669Z,11.52
2023-03-21T05:47:13.691Z,13.27
2023-03-21T05:50:20.538Z,11.37
2023-03-21T05:53:36.873Z,14.18
2023-03-21T05:56:39.695Z,13.02
2023-03-21T05:59:46.201Z,15.52
2023-03-21T06:02:51.073Z,11.63
2023-03-21T06:06:19.942Z,11.53
2023-03-21T06:09:35.490Z,13.15
2023-03-21T06:12:39.830Z,10.50
2023-03-21T06:15:55.952Z,9.55
2023-03-21T06:19:01.339Z,8.18
2023-03-21T06:22:21.512Z,10.13
2023-03-21T06:25:25.793Z,9.05
2023-03-21T06:28:29.721Z,8.13
2023-03-21T06:31:32.875Z,9.55
2023-03-21T06:34:39.545Z,12.00
2023-03-21T06:37:43.610Z,10.33
2023-03-21T06:40:47.574Z,9.88
2023-03-21T06:43:51.168Z,8.95
2023-03-21T06:46:55.527Z,9.23
2023-03-21T06:49:58.630Z,8.00
2023-03-21T06:53:03.657Z,9.57
2023-03-21T06:56:12.908Z,8.45
2023-03-21T06:59:18.421Z,7.82
2023-03-21T07:02:34.783Z,6.90
2023-03-21T07:05:50.994Z,6.45
2023-03-21T07:08:55.383Z,6.47
2023-03-21T07:11:59.216Z,6.82
2023-03-21T07:15:11.863Z,6.90
2023-03-21T07:18:16.598Z,8.35
2023-03-21T07:21:20.448Z,6.97
2023-03-21T07:24:23.527Z,5.67
2023-03-21T07:27:26.425Z,7.28
2023-03-21T07:30:29.217Z,7.25
2023-03-21T07:33:33.208Z,4.85
2023-03-21T07:36:37.896Z,6.13
2023-03-21T07:39:43.500Z,7.67
2023-03-21T07:42:49.078Z,6.32
2023-03-21T07:45:59.433Z,8.80
2023-03-21T07:49:02.806Z,7.13
2023-03-21T07:52:07.940Z,5.88
2023-03-21T07:55:11.672Z,5.10
2023-03-21T07:58:14.409Z,5.70
2023-03-21T08:01:17.400Z,6.13
2023-03-21T08:04:20.304Z,6.15
2023-03-21T08:07:23.187Z,4.35
2023-03-21T08:10:26.328Z,4.87
2023-03-21T08:13:29.476Z,4.88
2023-03-21T08:16:32.292Z,4.85
2023-03-21T08:19:35.781Z,4.57
2023-03-21T08:22:38.824Z,4.78
2023-03-21T08:25:41.552Z,4.30
2023-03-21T08:28:45.409Z,4.75
2023-03-21T08:31:48.206Z,6.13
2023-03-21T08:34:51.176Z,4.43
2023-03-21T08:37:53.954Z,3.65
2023-03-21T08:40:58.595Z,3.93
2023-03-21T08:44:05.038Z,3.10
2023-03-21T08:47:08.353Z,2.97
2023-03-21T08:50:14.557Z,4.03
2023-03-21T08:53:17.272Z,3.70
2023-03-21T08:56:20.105Z,3.47
2023-03-21T08:59:22.948Z,5.40
2023-03-21T09:02:25.971Z,5.55
2023-03-21T09:05:29.045Z,4.57
2023-03-21T09:08:31.911Z,4.13
2023-03-21T09:11:35.520Z,3.50
2023-03-21T09:14:38.809Z,4.57
2023-03-21T09:17:49.073Z,3.33
2023-03-21T09:20:52.052Z,3.15
2023-03-21T09:23:59.564Z,2.58
2023-03-21T09:27:03.329Z,6.97
2023-03-21T09:30:07.965Z,4.65
2023-03-21T09:33:13.216Z,4.88
2023-03-21T09:36:17.178Z,4.57
2023-03-21T09:39:23.320Z,4.32
2023-03-21T09:42:45.125Z,4.00
2023-03-21T09:45:59.944Z,3.90
2023-03-21T09:49:10.027Z,3.92
2023-03-21T09:52:38.609Z,5.20
2023-03-21T09:55:43.125Z,4.75
2023-03-21T09:58:53.526Z,4.10
2023-03-21T10:01:58.805Z,3.42
2023-03-21T10:05:06.812Z,4.30
2023-03-21T10:08:36.570Z,5.55
2023-03-21T10:11:47.988Z,2.80
2023-03-21T10:14:54.972Z,3.57
2023-03-21T10:18:23.624Z,2.28
2023-03-21T10:21:58.654Z,3.08
2023-03-21T10:24:52.148Z,3.88
2023-03-21T10:27:56.580Z,6.22
2023-03-21T10:31:04.599Z,2.90
2023-03-21T10:34:32.565Z,2.75
2023-03-21T10:37:36.500Z,2.85
2023-03-21T10:40:39.270Z,4.07
2023-03-21T10:43:44.982Z,3.58
2023-03-21T10:46:56.548Z,3.60
2023-03-21T10:50:10.106Z,4.03
2023-03-21T10:53:40.146Z,3.30
2023-03-21T10:57:01.020Z,2.63
2023-03-21T11:00:15.928Z,2.00
2023-03-21T11:03:23.522Z,2.10
2023-03-21T11:06:32.641Z,2.13
2023-03-21T11:09:56.623Z,2.05
2023-03-21T11:13:05.826Z,2.40
2023-03-21T11:16:23.078Z,2.17
2023-03-21T11:19:33.945Z,2.80
2023-03-21T11:22:43.650Z,2.08
2023-03-21T11:25:50.699Z,3.22
2023-03-21T11:28:55.140Z,2.03
2023-03-21T11:32:02.242Z,1.40
2023-03-21T11:35:14.226Z,1.30
2023-03-21T11:38:27.490Z,0.80
2023-03-21T11:41:33.449Z,0.70
2023-03-21T11:44:44.316Z,0.60
2023-03-21T11:47:49.662Z,0.52
2023-03-21T11:51:01.198Z,1.73
2023-03-21T11:54:12.706Z,0.77
2023-03-21T11:57:30.970Z,0.82
2023-03-21T12:00:43.527Z,1.42
2023-03-21T12:03:49.094Z,1.02
2023-03-21T12:07:00.770Z,1.23
2023-03-21T12:10:12.411Z,1.52
2023-03-21T12:13:36.607Z,4.07
2023-03-21T12:16:55.010Z,1.05
2023-03-21T12:19:57.708Z,1.88
2023-03-21T12:23:19.237Z,1.57
2023-03-21T12:26:32.636Z,1.10
2023-03-21T12:30:02.680Z,1.48
2023-03-21T12:33:31.341Z,2.00
2023-03-21T12:37:04.830Z,1.30
2023-03-21T12:40:22.430Z,1.37
2023-03-21T12:43:41.443Z,1.80
2023-03-21T12:46:51.224Z,1.73
2023-03-21T12:50:03.705Z,1.15
2023-03-21T12:53:37.948Z,1.40
2023-03-21T12:56:52.665Z,1.60
2023-03-21T13:00:01.506Z,1.80
2023-03-21T13:03:22.854Z,2.15
2023-03-21T13:06:30.348Z,3.58
2023-03-21T13:09:43.493Z,1.35
2023-03-21T13:13:10.927Z,1.97
2023-03-21T13:16:24.765Z,1.30
2023-03-21T13:19:36.740Z,2.85
2023-03-21T13:22:39.702Z,1.60
2023-03-21T13:25:49.290Z,0.85
2023-03-21T13:28:52.764Z,2.80
2023-03-21T13:32:07.541Z,1.58
2023-03-21T13:35:16.523Z,1.10
2023-03-21T13:38:30.316Z,2.45
2023-03-21T13:41:39.156Z,2.65
2023-03-21T13:44:50.317Z,1.20
2023-03-21T13:48:25.766Z,1.85
2023-03-21T13:51:28.848Z,1.10
2023-03-21T13:54:54.163Z,1.42
2023-03-21T13:57:57.310Z,1.10
2023-03-21T14:01:29.075Z,2.17
2023-03-21T14:04:43.219Z,1.92
2023-03-21T14:08:12.287Z,3.78
2023-03-21T14:11:19.651Z,1.00
2023-03-21T14:14:26.800Z,2.55
2023-03-21T14:17:34.944Z,1.60
2023-03-21T14:20:38.916Z,1.08
2023-03-21T14:23:42.014Z,1.10
2023-03-21T14:26:49.814Z,1.65
2023-03-21T14:29:53.568Z,1.83
2023-03-21T14:32:59.734Z,0.87
2023-03-21T14:36:15.691Z,0.82
2023-03-21T14:39:24.206Z,1.98
2023-03-21T14:42:27.357Z,0.77
2023-03-21T14:45:33.625Z,2.17
2023-03-21T14:48:36.298Z,2.33
2023-03-21T14:51:41.986Z,3.90
2023-03-21T14:54:47.323Z,0.70
2023-03-21T14:57:50.439Z,1.10
2023-03-21T15:00:57.063Z,0.55
2023-03-21T15:04:03.109Z,1.33
2023-03-21T15:07:07.947Z,0.80
2023-03-21T15:10:18.184Z,1.25
2023-03-21T15:13:25.789Z,1.83
2023-03-21T15:16:29.683Z,0.70
2023-03-21T15:19:37.721Z,1.53
2023-03-21T15:22:46.152Z,1.38
2023-03-21T15:25:48.917Z,1.08
2023-03-21T15:28:57.681Z,1.10
2023-03-21T15:32:08.021Z,2.00
2023-03-21T15:35:17.057Z,0.80
2023-03-21T15:38:53.402Z,3.28
2023-03-21T15:42:04.155Z,1.42
2023-03-21T15:45:23.951Z,1.55
2023-03-21T15:48:28.637Z,1.17
2023-03-21T15:51:32.837Z,1.83
2023-03-21T15:54:43.600Z,1.58
2023-03-21T15:57:47.604Z,1.77
2023-03-21T16:00:55.859Z,2.08
2023-03-21T16:04:05.910Z,1.25
2023-03-21T16:07:17.185Z,1.00
2023-03-21T16:10:33.827Z,1.40
2023-03-21T16:13:37.315Z,1.75
2023-03-21T16:16:40.300Z,3.47
2023-03-21T16:19:44.142Z,2.40
2023-03-21T16:22:47.900Z,1.50
2023-03-21T16:25:56.094Z,3.72
2023-03-21T16:29:00.357Z,2.13
2023-03-21T16:32:06.385Z,4.55
2023-03-21T16:35:09.679Z,3.67
2023-03-21T16:38:13.961Z,2.17
2023-03-21T16:41:17.249Z,2.45
2023-03-21T16:44:20.764Z,2.85
2023-03-21T16:47:24.349Z,4.43
2023-03-21T16:50:34.893Z,4.20
2023-03-21T16:53:37.698Z,5.37
2023-03-21T16:56:44.982Z,13.95
2023-03-21T16:59:48.748Z,11.45
2023-03-21T17:02:53.628Z,8.15
2023-03-21T17:05:56.379Z,8.50
2023-03-21T17:08:59.730Z,9.23
2023-03-21T17:12:02.602Z,8.23
2023-03-21T17:15:06.286Z,14.85
2023-03-21T17:18:10.526Z,7.28
2023-03-21T17:21:16.490Z,10.75
2023-03-21T17:24:19.350Z,13.83
2023-03-21T17:27:22.098Z,9.35
2023-03-21T17:30:31.554Z,7.45
2023-03-21T17:33:34.374Z,7.88
2023-03-21T17:36:41.651Z,6.15
2023-03-21T17:39:45.440Z,7.17
2023-03-21T17:42:49.191Z,7.72
2023-03-21T17:45:52.353Z,5.93
2023-03-21T17:48:55.796Z,7.10
2023-03-21T17:51:58.861Z,6.43
2023-03-21T17:55:02.333Z,10.77
2023-03-21T17:58:06.371Z,6.40
2023-03-21T18:01:09.199Z,5.63
2023-03-21T18:04:11.988Z,3.95
2023-03-21T18:07:24.491Z,3.80
2023-03-21T18:10:38.784Z,6.27
2023-03-21T18:13:43.391Z,6.20
2023-03-21T18:16:47.707Z,3.22
2023-03-21T18:19:50.710Z,2.90
2023-03-21T18:22:55.575Z,1.92
2023-03-21T18:25:59.542Z,1.93
2023-03-21T18:32:29.140Z,3.42
2023-03-21T18:35:32.334Z,4.40
2023-03-21T18:38:37.221Z,6.60
2023-03-21T18:41:40.548Z,2.90
2023-03-21T18:44:47.002Z,3.65
2023-03-21T18:47:50.458Z,4.53
2023-03-21T18:50:53.536Z,2.53
2023-03-21T18:53:57.914Z,2.67
2023-03-21T19:00:26.016Z,3.53
2023-03-21T19:03:36.781Z,7.18
2023-03-21T19:06:40.350Z,9.77
2023-03-21T19:10:05.240Z,4.30
2023-03-21T19:13:08.039Z,6.87
2023-03-21T19:16:11.682Z,17.70
2023-03-21T19:19:18.638Z,4.03
2023-03-21T19:22:22.063Z,5.20
2023-03-21T19:25:24.952Z,2.33
2023-03-21T19:28:28.208Z,4.73
2023-03-21T19:31:31.582Z,3.55
2023-03-21T19:34:34.844Z,5.72
2023-03-21T19:37:37.835Z,12.57
2023-03-21T19:40:42.113Z,8.07
2023-03-21T19:43:54.121Z,6.90
2023-03-21T19:46:58.461Z,7.75
2023-03-21T19:53:24.402Z,16.80
2023-03-21T19:56:28.020Z,15.45
2023-03-21T19:59:32.236Z,20.90
2023-03-21T20:02:36.760Z,11.30
2023-03-21T20:05:41.274Z,7.68
2023-03-21T20:12:07.684Z,10.30
2023-03-21T20:15:17.656Z,8.13
2023-03-21T20:18:24.177Z,26.80
2023-03-21T20:21:34.883Z,50.55
2023-03-21T20:24:45.941Z,30.85
2023-03-21T20:28:06.511Z,22.48
2023-03-21T20:31:15.235Z,16.50
2023-03-21T20:34:18.324Z,8.05
2023-03-21T20:37:21.069Z,4.30
2023-03-21T20:40:24.324Z,6.72
2023-03-21T20:46:51.453Z,6.77
2023-03-21T20:49:56.961Z,14.88
2023-03-21T20:53:07.212Z,21.40
2023-03-21T20:56:10.412Z,12.77
2023-03-21T20:59:20.964Z,11.07
2023-03-21T21:02:28.371Z,10.80
2023-03-21T21:05:34.827Z,16.25
2023-03-21T21:08:39.461Z,5.25
2023-03-21T21:15:08.374Z,7.00
2023-03-21T21:18:12.440Z,5.97
2023-03-21T21:21:17.308Z,7.75
2023-03-21T21:24:20.454Z,5.45
2023-03-21T21:27:23.455Z,8.80
2023-03-21T21:30:26.180Z,5.18
2023-03-21T21:33:29.369Z,4.10
2023-03-21T21:36:32.132Z,3.13
2023-03-21T21:39:38.705Z,4.20
2023-03-21T21:42:43.838Z,3.53
2023-03-21T21:45:48.299Z,5.43
2023-03-21T21:48:51.720Z,7.20
2023-03-21T21:51:56.376Z,9.15
2023-03-21T21:55:02.274Z,11.05
2023-03-21T21:58:08.506Z,8.43
2023-03-21T22:01:11.278Z,5.45
2023-03-21T22:04:15.018Z,6.50
2023-03-21T22:07:17.800Z,8.85
2023-03-21T22:10:27.632Z,7.70
2023-03-21T22:13:30.406Z,4.82
2023-03-21T22:16:33.163Z,5.47
2023-03-21T22:19:37.104Z,5.77
2023-03-21T22:22:41.995Z,5.63
2023-03-21T22:25:50.558Z,7.20
2023-03-21T22:28:53.603Z,4.20
2023-03-21T22:31:56.766Z,5.53
2023-03-21T22:35:02.431Z,9.73
2023-03-21T22:38:05.599Z,6.90
2023-03-21T22:41:08.328Z,6.25
2023-03-21T22:44:11.318Z,5.43
2023-03-21T22:47:14.024Z,7.07
2023-03-21T22:50:16.834Z,7.67
2023-03-21T22:53:19.492Z,6.45
2023-03-21T22:56:22.253Z,3.88
2023-03-21T22:59:25.754Z,5.63
2023-03-21T23:02:28.492Z,7.63
2023-03-21T23:05:31.365Z,6.73
2023-03-21T23:08:34.225Z,6.55
2023-03-21T23:11:37.869Z,2.80
2023-03-21T23:14:41.056Z,4.22
2023-03-21T23:17:44.322Z,4.68
2023-03-21T23:20:49.871Z,3.20
2023-03-21T23:23:53.106Z,2.78
2023-03-21T23:26:55.996Z,5.63
2023-03-21T23:29:58.751Z,4.38
2023-03-21T23:33:01.498Z,4.72
2023-03-21T23:36:21.349Z,4.57
2023-03-21T23:39:24.646Z,4.38
2023-03-21T23:42:29.542Z,5.47
2023-03-21T23:45:33.049Z,6.00
2023-03-21T23:48:36.078Z,4.88
2023-03-21T23:51:39.268Z,5.80
2023-03-21T23:54:42.050Z,4.63
2023-03-21T23:57:44.769Z,5.75
